createdAt,value
2023-01-11T00:01:19.666Z,3.25
2023-01-11T00:04:09.476Z,3.47
2023-01-11T00:06:51.535Z,3.05
2023-01-11T00:09:41.410Z,5.40
2023-01-11T00:12:30.418Z,3.83
2023-01-11T00:15:12.764Z,6.30
2023-01-11T00:18:00.461Z,3.70
2023-01-11T00:20:42.642Z,2.72
2023-01-11T00:23:30.400Z,3.60
2023-01-11T00:26:15.591Z,4.85
2023-01-11T00:29:04.424Z,7.88
2023-01-11T00:31:53.346Z,4.35
2023-01-11T00:34:44.580Z,3.65
2023-01-11T00:37:34.499Z,3.00
2023-01-11T00:40:16.574Z,4.13
2023-01-11T00:43:24.485Z,3.55
2023-01-11T00:46:31.292Z,3.35
2023-01-11T00:49:13.459Z,4.47
2023-01-11T00:51:55.543Z,3.58
2023-01-11T00:54:44.611Z,2.75
2023-01-11T00:57:26.436Z,5.03
2023-01-11T01:00:16.454Z,4.88
2023-01-11T01:02:58.657Z,4.28
2023-01-11T01:05:47.456Z,3.13
2023-01-11T01:08:35.523Z,3.20
2023-01-11T01:11:17.829Z,3.58
2023-01-11T01:14:23.456Z,6.20
2023-01-11T01:17:08.836Z,2.78
2023-01-11T01:19:56.473Z,5.10
2023-01-11T01:22:38.685Z,4.68
2023-01-11T01:25:27.443Z,4.40
2023-01-11T01:28:09.746Z,3.05
2023-01-11T01:30:58.473Z,1.50
2023-01-11T01:33:48.585Z,2.85
2023-01-11T01:36:30.481Z,2.67
2023-01-11T01:39:20.487Z,4.28
2023-01-11T01:42:02.558Z,2.58
2023-01-11T01:45:13.445Z,1.63
2023-01-11T01:47:58.719Z,3.40
2023-01-11T01:50:51.519Z,2.38
2023-01-11T01:53:37.386Z,2.80
2023-01-11T01:56:30.479Z,3.25
2023-01-11T01:59:22.477Z,4.63
2023-01-11T02:02:04.612Z,2.65
2023-01-11T02:04:55.447Z,3.40
2023-01-11T02:07:41.752Z,1.38
2023-01-11T02:10:30.486Z,2.75
2023-01-11T02:13:16.688Z,1.42
2023-01-11T02:16:14.837Z,2.17
2023-01-11T02:18:56.716Z,1.90
2023-01-11T02:21:58.471Z,1.63
2023-01-11T02:25:07.485Z,2.28
2023-01-11T02:28:06.984Z,1.67
2023-01-11T02:31:02.544Z,3.45
2023-01-11T02:33:55.007Z,2.28
2023-01-11T02:36:52.475Z,0.98
2023-01-11T02:39:44.347Z,4.50
2023-01-11T02:42:58.490Z,1.60
2023-01-11T02:45:53.684Z,2.17
2023-01-11T02:48:42.580Z,1.20
2023-01-11T02:51:33.543Z,3.92
2023-01-11T02:54:25.551Z,2.47
2023-01-11T02:57:10.341Z,1.50
2023-01-11T03:00:04.467Z,1.10
2023-01-11T03:02:47.688Z,3.00
2023-01-11T03:05:36.458Z,5.72
2023-01-11T03:08:51.494Z,1.80
2023-01-11T03:12:05.427Z,1.60
2023-01-11T03:15:05.512Z,3.65
2023-01-11T03:18:00.655Z,3.50
2023-01-11T03:20:52.513Z,4.20
2023-01-11T03:23:45.641Z,2.28
2023-01-11T03:26:43.465Z,1.25
2023-01-11T03:29:33.663Z,2.28
2023-01-11T03:32:29.484Z,1.00
2023-01-11T03:35:32.538Z,0.98
2023-01-11T03:38:21.764Z,2.10
2023-01-11T03:41:15.512Z,1.63
2023-01-11T03:44:14.554Z,0.88
2023-01-11T03:47:07.503Z,1.38
2023-01-11T03:49:52.644Z,2.05
2023-01-11T03:52:44.479Z,2.13
2023-01-11T03:55:29.708Z,1.75
2023-01-11T03:58:18.561Z,0.60
2023-01-11T04:01:02.833Z,1.30
2023-01-11T04:03:50.501Z,31.98
2023-01-11T04:06:39.595Z,5.00
2023-01-11T04:09:22.939Z,1.52
2023-01-11T04:12:11.559Z,3.47
2023-01-11T04:14:56.937Z,4.72
2023-01-11T04:17:45.513Z,1.35
2023-01-11T04:20:27.457Z,1.08
2023-01-11T04:23:16.502Z,0.85
2023-01-11T04:25:59.809Z,0.80
2023-01-11T04:28:52.229Z,1.98
2023-01-11T04:31:35.399Z,0.75
2023-01-11T04:34:18.590Z,1.13
2023-01-11T04:37:07.603Z,3.33
2023-01-11T04:39:49.510Z,3.40
2023-01-11T04:42:40.517Z,1.45
2023-01-11T04:45:36.544Z,2.60
2023-01-11T04:48:24.575Z,0.95
2023-01-11T04:51:06.890Z,1.65
2023-01-11T04:53:56.601Z,2.30
2023-01-11T04:56:38.690Z,0.70
2023-01-11T04:59:30.534Z,1.30
2023-01-11T05:02:21.519Z,1.63
2023-01-11T05:05:03.556Z,0.70
2023-01-11T05:07:52.617Z,0.80
2023-01-11T05:10:34.471Z,1.02
2023-01-11T05:13:23.523Z,2.15
2023-01-11T05:16:07.544Z,2.40
2023-01-11T05:18:57.535Z,3.33
2023-01-11T05:21:41.261Z,1.45
2023-01-11T05:24:30.522Z,2.67
2023-01-11T05:27:12.495Z,1.65
2023-01-11T05:29:54.507Z,3.35
2023-01-11T05:32:44.527Z,1.98
2023-01-11T05:35:26.420Z,2.42
2023-01-11T05:38:15.535Z,8.13
2023-01-11T05:40:58.263Z,4.53
2023-01-11T05:44:06.531Z,5.25
2023-01-11T05:46:53.854Z,6.22
2023-01-11T05:49:36.519Z,4.00
2023-01-11T05:52:18.661Z,9.38
2023-01-11T05:55:07.537Z,10.23
2023-01-11T05:58:02.556Z,8.32
2023-01-11T06:00:44.505Z,9.13
2023-01-11T06:03:33.530Z,8.18
2023-01-11T06:06:17.885Z,4.28
2023-01-11T06:09:06.534Z,7.03
2023-01-11T06:11:50.059Z,8.20
2023-01-11T06:14:38.617Z,11.05
2023-01-11T06:17:20.727Z,7.38
2023-01-11T06:20:09.604Z,7.78
2023-01-11T06:22:53.025Z,8.98
2023-01-11T06:25:42.134Z,8.52
2023-01-11T06:28:31.533Z,11.68
2023-01-11T06:31:17.099Z,12.52
2023-01-11T06:34:05.620Z,19.52
2023-01-11T06:36:47.772Z,9.50
2023-01-11T06:39:37.536Z,13.63
2023-01-11T06:42:19.943Z,6.70
2023-01-11T06:45:07.551Z,7.93
2023-01-11T06:47:49.711Z,11.18
2023-01-11T06:50:38.584Z,8.80
2023-01-11T06:53:20.946Z,11.65
2023-01-11T06:56:10.689Z,5.07
2023-01-11T06:58:59.561Z,11.23
2023-01-11T07:01:41.457Z,10.15
2023-01-11T07:04:30.549Z,14.70
2023-01-11T07:07:12.402Z,10.07
2023-01-11T07:10:01.551Z,12.25
2023-01-11T07:12:44.823Z,13.75
2023-01-11T07:15:33.713Z,7.65
2023-01-11T07:18:15.650Z,11.90
2023-01-11T07:21:05.577Z,13.45
2023-01-11T07:23:48.825Z,7.20
2023-01-11T07:26:37.616Z,10.20
2023-01-11T07:29:34.675Z,12.07
2023-01-11T07:32:16.487Z,11.18
2023-01-11T07:35:05.581Z,8.23
2023-01-11T07:37:47.446Z,11.77
2023-01-11T07:40:36.581Z,11.85
2023-01-11T07:43:19.539Z,10.93
2023-01-11T07:46:10.748Z,11.65
2023-01-11T07:48:52.555Z,6.00
2023-01-11T07:51:41.556Z,7.35
2023-01-11T07:54:24.698Z,10.15
2023-01-11T07:57:13.571Z,11.45
2023-01-11T08:00:01.692Z,8.65
2023-01-11T08:02:47.996Z,11.98
2023-01-11T08:05:36.570Z,13.88
2023-01-11T08:08:19.018Z,14.50
2023-01-11T08:11:24.707Z,13.93
2023-01-11T08:14:24.317Z,13.95
2023-01-11T08:17:12.600Z,10.73
2023-01-11T08:19:56.276Z,12.80
2023-01-11T08:22:44.608Z,11.55
2023-01-11T08:25:33.609Z,14.02
2023-01-11T08:28:15.559Z,16.75
2023-01-11T08:31:04.613Z,12.45
2023-01-11T08:33:46.707Z,14.60
2023-01-11T08:36:36.579Z,12.32
2023-01-11T08:39:18.535Z,18.05
2023-01-11T08:42:07.581Z,16.50
2023-01-11T08:45:02.569Z,14.82
2023-01-11T08:47:50.618Z,10.77
2023-01-11T08:50:39.683Z,16.98
2023-01-11T08:53:22.865Z,14.95
2023-01-11T08:56:11.593Z,12.95
2023-01-11T08:58:53.472Z,15.10
2023-01-11T09:01:42.638Z,14.05
2023-01-11T09:04:25.792Z,12.52
2023-01-11T09:07:14.606Z,12.45
2023-01-11T09:09:57.865Z,12.93
2023-01-11T09:12:46.602Z,7.80
2023-01-11T09:15:29.022Z,11.15
2023-01-11T09:18:17.693Z,7.93
2023-01-11T09:21:05.618Z,10.68
2023-01-11T09:23:47.823Z,15.52
2023-01-11T09:26:37.691Z,12.43
2023-01-11T09:29:20.061Z,11.48
2023-01-11T09:32:07.723Z,13.52
2023-01-11T09:34:53.288Z,19.23
2023-01-11T09:37:43.603Z,16.92
2023-01-11T09:40:30.908Z,11.40
2023-01-11T09:43:23.651Z,13.52
2023-01-11T09:46:16.657Z,15.52
2023-01-11T09:49:00.443Z,11.70
2023-01-11T09:51:50.748Z,11.02
2023-01-11T09:54:33.834Z,11.20
2023-01-11T09:57:30.595Z,14.65
2023-01-11T10:00:23.818Z,10.43
2023-01-11T10:03:32.637Z,15.13
2023-01-11T10:06:18.569Z,7.90
2023-01-11T10:18:26.287Z,10.50
2023-01-11T10:19:33.571Z,13.95
2023-01-11T10:22:22.328Z,13.82
2023-01-11T10:25:17.791Z,19.30
2023-01-11T10:28:04.656Z,17.73
2023-01-11T10:31:14.673Z,15.40
2023-01-11T10:34:22.558Z,13.68
2023-01-11T10:37:33.633Z,14.00
2023-01-11T10:41:05.711Z,10.88
2023-01-11T10:43:55.050Z,14.82
2023-01-11T10:46:46.621Z,16.90
2023-01-11T10:49:39.395Z,15.88
2023-01-11T10:52:40.620Z,12.60
2023-01-11T10:55:37.627Z,20.45
2023-01-11T10:58:31.883Z,19.13
2023-01-11T11:01:26.637Z,16.08
2023-01-11T11:04:26.021Z,18.30
2023-01-11T11:07:20.637Z,12.45
2023-01-11T11:10:09.003Z,13.82
2023-01-11T11:13:05.675Z,12.55
2023-01-11T11:15:55.964Z,14.93
2023-01-11T11:18:44.671Z,17.75
2023-01-11T11:21:32.887Z,11.23
2023-01-11T11:24:28.732Z,15.27
2023-01-11T11:27:26.636Z,25.25
2023-01-11T11:30:12.196Z,15.43
2023-01-11T11:33:08.665Z,19.90
2023-01-11T11:35:57.707Z,11.27
2023-01-11T11:38:49.715Z,13.57
2023-01-11T11:41:45.660Z,11.38
2023-01-11T11:44:36.672Z,13.35
2023-01-11T11:47:25.919Z,22.88
2023-01-11T11:50:44.898Z,13.80
2023-01-11T11:53:33.567Z,11.60
2023-01-11T11:56:34.657Z,19.13
2023-01-11T11:59:25.653Z,19.98
2023-01-11T12:02:10.973Z,16.75
2023-01-11T12:04:59.740Z,10.88
2023-01-11T12:07:54.245Z,12.35
2023-01-11T12:10:43.652Z,20.05
2023-01-11T12:13:38.835Z,20.20
2023-01-11T12:16:29.693Z,15.90
2023-01-11T12:19:11.878Z,14.05
2023-01-11T12:22:00.665Z,11.00
2023-01-11T12:24:49.746Z,15.57
2023-01-11T12:27:39.739Z,18.17
2023-01-11T12:30:36.713Z,20.38
2023-01-11T12:33:38.998Z,15.48
2023-01-11T12:36:37.723Z,15.13
2023-01-11T12:39:29.436Z,15.15
2023-01-11T12:42:34.756Z,13.68
2023-01-11T12:45:44.683Z,16.88
2023-01-11T12:49:00.658Z,18.27
2023-01-11T12:51:57.856Z,10.02
2023-01-11T12:55:00.729Z,13.75
2023-01-11T12:57:59.899Z,13.27
2023-01-11T13:01:20.705Z,13.10
2023-01-11T13:04:39.704Z,15.45
2023-01-11T13:07:34.035Z,11.25
2023-01-11T13:10:36.666Z,15.23
2023-01-11T13:13:27.713Z,12.27
2023-01-11T13:16:27.814Z,9.25
2023-01-11T13:19:17.889Z,11.00
2023-01-11T13:22:11.770Z,12.45
2023-01-11T13:24:53.739Z,7.22
2023-01-11T13:27:44.732Z,7.43
2023-01-11T13:30:27.230Z,10.30
2023-01-11T13:33:20.716Z,10.63
2023-01-11T13:36:23.666Z,9.93
2023-01-11T13:39:14.963Z,13.23
2023-01-11T13:42:06.699Z,13.75
2023-01-11T13:44:57.379Z,6.80
2023-01-11T13:47:51.805Z,6.35
2023-01-11T13:50:42.595Z,5.90
2023-01-11T13:53:40.774Z,4.75
2023-01-11T13:56:29.070Z,8.13
2023-01-11T13:59:23.712Z,9.13
2023-01-11T14:02:14.595Z,9.07
2023-01-11T14:05:07.733Z,6.75
2023-01-11T14:08:22.827Z,9.30
2023-01-11T14:11:14.934Z,9.68
2023-01-11T14:14:26.959Z,7.28
2023-01-11T14:17:44.000Z,8.57
2023-01-11T14:21:02.229Z,8.07
2023-01-11T14:23:59.805Z,8.82
2023-01-11T14:30:30.683Z,9.32
2023-01-11T14:33:52.953Z,12.85
2023-01-11T14:37:22.752Z,5.85
2023-01-11T14:40:34.969Z,8.55
2023-01-11T14:43:44.682Z,6.07
2023-01-11T14:47:15.772Z,10.60
2023-01-11T14:50:20.701Z,10.00
2023-01-11T14:53:05.916Z,9.95
2023-01-11T14:55:55.675Z,7.07
2023-01-11T14:58:39.915Z,9.55
2023-01-11T15:01:28.719Z,8.95
2023-01-11T15:04:13.028Z,8.38
2023-01-11T15:07:01.795Z,10.45
2023-01-11T15:09:50.918Z,12.38
2023-01-11T15:12:42.799Z,13.23
2023-01-11T15:15:48.059Z,6.82
2023-01-11T15:18:35.766Z,12.30
2023-01-11T15:21:30.796Z,14.32
2023-01-11T15:24:24.732Z,13.02
2023-01-11T15:27:15.861Z,12.70
2023-01-11T15:29:59.265Z,8.80
2023-01-11T15:32:48.785Z,6.38
2023-01-11T15:35:34.862Z,13.93
2023-01-11T15:38:29.792Z,6.65
2023-01-11T15:41:33.589Z,9.48
2023-01-11T15:44:42.783Z,8.85
2023-01-11T15:48:03.795Z,11.65
2023-01-11T15:51:16.777Z,9.98
2023-01-11T15:54:31.727Z,10.68
2023-01-11T15:57:58.938Z,13.15
2023-01-11T16:01:13.021Z,9.07
2023-01-11T16:04:20.192Z,6.95
2023-01-11T16:07:05.802Z,11.65
2023-01-11T16:10:08.210Z,10.85
2023-01-11T16:13:08.808Z,13.70
2023-01-11T16:16:10.800Z,11.20
2023-01-11T16:18:57.018Z,11.43
2023-01-11T16:21:49.428Z,9.48
2023-01-11T16:24:36.066Z,12.07
2023-01-11T16:27:31.701Z,11.32
2023-01-11T16:30:21.993Z,9.85
2023-01-11T16:33:27.749Z,11.50
2023-01-11T16:36:21.140Z,13.75
2023-01-11T16:39:11.730Z,8.57
2023-01-11T16:41:58.981Z,11.50
2023-01-11T16:44:56.772Z,9.95
2023-01-11T16:47:44.955Z,13.02
2023-01-11T16:50:31.837Z,10.52
2023-01-11T16:53:14.562Z,7.38
2023-01-11T16:56:11.753Z,8.40
2023-01-11T16:59:07.733Z,9.85
2023-01-11T17:02:17.873Z,13.07
2023-01-11T17:05:00.591Z,12.52
2023-01-11T17:07:49.793Z,8.73
2023-01-11T17:10:32.043Z,7.30
2023-01-11T17:13:59.776Z,9.80
2023-01-11T17:16:49.885Z,10.35
2023-01-11T17:19:37.001Z,8.23
2023-01-11T17:22:29.765Z,7.82
2023-01-11T17:25:14.035Z,9.90
2023-01-11T17:28:07.820Z,11.80
2023-01-11T17:30:52.986Z,8.18
2023-01-11T17:33:41.863Z,11.18
2023-01-11T17:36:25.087Z,9.30
2023-01-11T17:39:13.758Z,11.27
2023-01-11T17:42:13.628Z,9.00
2023-01-11T17:45:21.821Z,10.00
2023-01-11T17:48:24.780Z,19.08
2023-01-11T17:51:07.216Z,14.07
2023-01-11T17:54:03.776Z,8.23
2023-01-11T17:56:55.488Z,7.28
2023-01-11T17:59:44.761Z,6.82
2023-01-11T18:02:26.932Z,8.30
2023-01-11T18:05:16.777Z,6.10
2023-01-11T18:08:03.977Z,8.93
2023-01-11T18:10:54.751Z,10.27
2023-01-11T18:13:36.615Z,8.02
2023-01-11T18:16:32.985Z,8.43
2023-01-11T18:19:39.741Z,9.48
2023-01-11T18:22:37.188Z,9.85
2023-01-11T18:25:28.828Z,8.38
2023-01-11T18:28:45.188Z,10.05
2023-01-11T18:31:32.793Z,6.68
2023-01-11T18:34:16.054Z,11.60
2023-01-11T18:37:05.812Z,7.63
2023-01-11T18:39:47.949Z,10.43
2023-01-11T18:42:38.777Z,11.63
2023-01-11T18:45:22.147Z,6.60
2023-01-11T18:48:16.873Z,9.02
2023-01-11T18:51:06.845Z,7.00
2023-01-11T18:53:49.091Z,8.10
2023-01-11T18:56:37.765Z,8.48
2023-01-11T18:59:20.432Z,10.18
2023-01-11T19:05:05.723Z,9.07
2023-01-11T19:07:54.798Z,6.00
2023-01-11T19:10:37.015Z,9.35
2023-01-11T19:13:19.823Z,8.85
2023-01-11T19:16:08.901Z,10.63
2023-01-11T19:18:52.196Z,12.30
2023-01-11T19:21:40.885Z,8.90
2023-01-11T19:24:22.996Z,10.85
2023-01-11T19:27:11.953Z,10.80
2023-01-11T19:29:54.282Z,14.27
2023-01-11T19:32:42.925Z,8.77
2023-01-11T19:35:26.365Z,10.35
2023-01-11T19:38:13.885Z,8.02
2023-01-11T19:41:03.243Z,12.73
2023-01-11T19:43:46.350Z,14.20
2023-01-11T19:46:35.828Z,9.13
2023-01-11T19:49:17.881Z,6.72
2023-01-11T19:52:09.269Z,10.77
2023-01-11T19:54:53.308Z,10.00
2023-01-11T19:57:42.195Z,8.07
2023-01-11T20:00:37.384Z,7.93
2023-01-11T20:03:27.586Z,9.30
2023-01-11T20:06:09.913Z,14.38
2023-01-11T20:09:01.881Z,10.50
2023-01-11T20:11:55.980Z,10.90
2023-01-11T20:14:40.738Z,8.45
2023-01-11T20:17:29.849Z,7.78
2023-01-11T20:20:15.189Z,15.75
2023-01-11T20:23:04.113Z,4.43
2023-01-11T20:25:48.242Z,13.50
2023-01-11T20:28:36.940Z,7.72
2023-01-11T20:31:24.495Z,8.30
2023-01-11T20:34:14.848Z,16.30
2023-01-11T20:37:03.884Z,9.82
2023-01-11T20:39:45.923Z,11.73
2023-01-11T20:42:36.045Z,9.77
2023-01-11T20:45:18.242Z,8.57
2023-01-11T20:48:06.801Z,8.30
2023-01-11T20:50:48.884Z,6.10
2023-01-11T20:53:37.863Z,10.20
2023-01-11T20:56:19.932Z,9.65
2023-01-11T20:59:42.845Z,9.48
2023-01-11T21:02:30.912Z,9.55
2023-01-11T21:05:13.996Z,4.85
2023-01-11T21:08:03.881Z,6.90
2023-01-11T21:10:46.095Z,4.82
2023-01-11T21:13:33.918Z,6.63
2023-01-11T21:16:23.618Z,4.55
2023-01-11T21:19:31.854Z,12.60
2023-01-11T21:22:15.026Z,13.00
2023-01-11T21:25:03.926Z,14.27
2023-01-11T21:27:52.829Z,10.40
2023-01-11T21:30:46.137Z,9.63
2023-01-11T21:33:39.180Z,6.22
2023-01-11T21:36:23.638Z,13.98
2023-01-11T21:39:12.862Z,10.18
2023-01-11T21:41:58.761Z,11.93
2023-01-11T21:44:48.957Z,8.20
2023-01-11T21:47:43.850Z,8.57
2023-01-11T21:50:27.168Z,7.45
2023-01-11T21:53:15.993Z,15.18
2023-01-11T21:55:57.994Z,11.77
2023-01-11T21:58:46.951Z,8.15
2023-01-11T22:01:29.305Z,6.18
2023-01-11T22:04:19.846Z,8.57
2023-01-11T22:07:03.171Z,7.97
2023-01-11T22:10:04.099Z,11.38
2023-01-11T22:12:46.812Z,5.30
2023-01-11T22:15:35.838Z,10.70
2023-01-11T22:18:23.842Z,6.22
2023-01-11T22:21:13.239Z,5.90
2023-01-11T22:24:03.860Z,8.75
2023-01-11T22:26:47.183Z,8.82
2023-01-11T22:29:35.836Z,10.20
2023-01-11T22:32:18.116Z,9.40
2023-01-11T22:35:06.899Z,9.32
2023-01-11T22:37:49.096Z,8.15
2023-01-11T22:40:38.844Z,6.75
2023-01-11T22:43:27.888Z,8.68
2023-01-11T22:46:27.849Z,12.32
2023-01-11T22:49:18.948Z,15.57
2023-01-11T22:52:01.062Z,8.82
2023-01-11T22:54:48.849Z,13.65
2023-01-11T22:57:32.080Z,10.13
2023-01-11T23:00:24.912Z,12.90
2023-01-11T23:03:07.101Z,9.30
2023-01-11T23:05:54.883Z,6.13
2023-01-11T23:08:43.872Z,12.27
2023-01-11T23:11:45.362Z,7.30
2023-01-11T23:14:36.936Z,10.35
2023-01-11T23:17:19.460Z,12.30
2023-01-11T23:20:07.845Z,13.32
2023-01-11T23:22:51.650Z,12.70
2023-01-11T23:25:39.853Z,6.05
2023-01-11T23:28:21.817Z,10.40
2023-01-11T23:31:11.959Z,8.10
2023-01-11T23:34:02.910Z,9.68
2023-01-11T23:36:47.088Z,11.85
2023-01-11T23:39:35.901Z,9.57
2023-01-11T23:42:27.302Z,13.93
2023-01-11T23:45:16.967Z,15.63
2023-01-11T23:48:06.013Z,9.93
2023-01-11T23:50:47.835Z,11.52
2023-01-11T23:53:29.828Z,14.93
2023-01-11T23:56:18.964Z,14.32
2023-01-11T23:59:01.276Z,8.38
